« 2011年秋の北海道~2日目 | トップページ | 2011年秋の北海道~4日目 »

2011年9月23日 (金)

2011年秋の北海道~3日目

RJCK 222200Z 36003KT 330V040 9999 FEW010 SCT030 BKN070 11/09 Q1009
RJCK 230000Z VRB03KT 9999 FEW020 BKN060 13/08 Q1010
RJCK 230300Z 01003KT 290V050 9999 FEW020 SCT050 BKN060 14/09 Q1010
RJCK 230600Z 05006KT 360V080 9999 FEW020 BKN050 BKN060 15/10 Q1011
RJCK 230900Z 14005KT 9999 FEW006 BKN020 12/09 Q1013

Dscn8615s
青空がまぶしい霧多布野営場

Dscn8618s
朝ごはんの用意

Dscn8620s
即席ラーメンとパーコレーターで入れたコーヒー

Dscn8627s
花咲線の踏み切りを越えて~

Photo
運転手はさん

Dscn8629s
台風で根こそぎ倒された木々

-----------------------------------------------------------------------------

Dscn8632s
春国岱(しゅんくにたい)の木道を散歩

Dscn8633s
湿原にミニチュアな川の流れ

Dscn8634s
赤いのは、さんご草、厚岸草とも呼ばれます

Dscn8635s
この辺りは汽水域なのでしょうか?

Dscn8638s
湿原が森になっていく過程が見れると言われる春国岱(しゅんくにたい)

Dscn8643s
小さな川が釧路川のように蛇行していました。

Dscn8644s
標津のサーモンパークの隣にある橋から見た遡上中の鮭の群れ

Dscn8652s
羅臼近くの松法漁港で今夜のおかずを釣ります!アブラコ大漁でした。


そして今夜は熊が濃い、羅臼野営場でテント泊です!

|

« 2011年秋の北海道~2日目 | トップページ | 2011年秋の北海道~4日目 »

別海合宿」カテゴリの記事

コメント

コメントを書く



(ウェブ上には掲載しません)


コメントは記事投稿者が公開するまで表示されません。



« 2011年秋の北海道~2日目 | トップページ | 2011年秋の北海道~4日目 »